sensor_id;sensor_type;location;lat;lon;timestamp;temperature;humidity
38936;DHT22;66589;47.458;9.644;2023-07-09T03:16:37;22.20;70.10
38936;DHT22;66589;47.458;9.644;2023-07-09T03:19:03;22.20;69.10
38936;DHT22;66589;47.458;9.644;2023-07-09T03:21:30;22.20;70.00
38936;DHT22;66589;47.458;9.644;2023-07-09T03:23:57;22.20;69.70
38936;DHT22;66589;47.458;9.644;2023-07-09T03:26:23;22.10;69.80
38936;DHT22;66589;47.458;9.644;2023-07-09T03:28:51;22.20;70.00
38936;DHT22;66589;47.458;9.644;2023-07-09T03:31:18;22.20;70.10
38936;DHT22;66589;47.458;9.644;2023-07-09T03:33:45;22.20;69.90
38936;DHT22;66589;47.458;9.644;2023-07-09T03:36:11;22.20;70.40
38936;DHT22;66589;47.458;9.644;2023-07-09T03:38:37;22.20;70.00
38936;DHT22;66589;47.458;9.644;2023-07-09T03:41:02;22.20;70.40
38936;DHT22;66589;47.458;9.644;2023-07-09T03:43:28;22.20;70.40
38936;DHT22;66589;47.458;9.644;2023-07-09T03:45:54;22.10;70.50
38936;DHT22;66589;47.458;9.644;2023-07-09T03:48:20;22.10;70.20
38936;DHT22;66589;47.458;9.644;2023-07-09T03:50:47;22.10;70.80
38936;DHT22;66589;47.458;9.644;2023-07-09T03:53:14;22.10;71.40
38936;DHT22;66589;47.458;9.644;2023-07-09T03:55:40;22.10;71.00
38936;DHT22;66589;47.458;9.644;2023-07-09T03:58:06;22.00;71.40
38936;DHT22;66589;47.458;9.644;2023-07-09T04:00:32;22.00;71.40
38936;DHT22;66589;47.458;9.644;2023-07-09T04:02:58;22.10;71.30
38936;DHT22;66589;47.458;9.644;2023-07-09T04:05:25;22.30;71.30
38936;DHT22;66589;47.458;9.644;2023-07-09T04:07:51;22.50;70.00
38936;DHT22;66589;47.458;9.644;2023-07-09T04:10:17;22.80;69.50
38936;DHT22;66589;47.458;9.644;2023-07-09T04:12:43;23.20;68.50
38936;DHT22;66589;47.458;9.644;2023-07-09T04:15:10;23.60;67.30
38936;DHT22;66589;47.458;9.644;2023-07-09T04:17:38;24.00;65.20
38936;DHT22;66589;47.458;9.644;2023-07-09T04:20:04;24.40;64.50
38936;DHT22;66589;47.458;9.644;2023-07-09T04:22:33;24.80;63.00
38936;DHT22;66589;47.458;9.644;2023-07-09T04:24:59;25.20;62.70
38936;DHT22;66589;47.458;9.644;2023-07-09T04:27:25;25.60;62.00
38936;DHT22;66589;47.458;9.644;2023-07-09T04:29:53;26.00;60.40
38936;DHT22;66589;47.458;9.644;2023-07-09T04:32:19;26.30;58.60
38936;DHT22;66589;47.458;9.644;2023-07-09T04:34:45;26.50;58.70
38936;DHT22;66589;47.458;9.644;2023-07-09T04:37:11;26.60;58.10
38936;DHT22;66589;47.458;9.644;2023-07-09T04:39:37;27.00;57.90
38936;DHT22;66589;47.458;9.644;2023-07-09T04:42:04;27.40;58.10
38936;DHT22;66589;47.458;9.644;2023-07-09T04:44:30;27.80;57.30
38936;DHT22;66589;47.458;9.644;2023-07-09T04:46:56;28.20;57.70
38936;DHT22;66589;47.458;9.644;2023-07-09T04:49:21;28.70;58.10
38936;DHT22;66589;47.458;9.644;2023-07-09T04:51:47;29.00;57.60
38936;DHT22;66589;47.458;9.644;2023-07-09T04:54:13;29.40;55.50
38936;DHT22;66589;47.458;9.644;2023-07-09T04:56:41;29.90;54.60
38936;DHT22;66589;47.458;9.644;2023-07-09T04:59:13;30.10;54.80
38936;DHT22;66589;47.458;9.644;2023-07-09T05:01:39;30.60;51.70
38936;DHT22;66589;47.458;9.644;2023-07-09T05:04:04;30.90;50.90
38936;DHT22;66589;47.458;9.644;2023-07-09T05:06:30;31.20;49.50
38936;DHT22;66589;47.458;9.644;2023-07-09T05:08:56;31.60;50.40
38936;DHT22;66589;47.458;9.644;2023-07-09T05:11:21;31.70;48.70
38936;DHT22;66589;47.458;9.644;2023-07-09T05:13:47;32.00;48.60
38936;DHT22;66589;47.458;9.644;2023-07-09T05:16:13;32.40;47.70
38936;DHT22;66589;47.458;9.644;2023-07-09T05:18:39;32.70;48.00
38936;DHT22;66589;47.458;9.644;2023-07-09T05:21:04;33.30;46.10
38936;DHT22;66589;47.458;9.644;2023-07-09T05:23:30;33.50;45.80
38936;DHT22;66589;47.458;9.644;2023-07-09T05:25:59;33.70;45.70
38936;DHT22;66589;47.458;9.644;2023-07-09T05:28:25;34.10;45.20
38936;DHT22;66589;47.458;9.644;2023-07-09T05:30:51;34.40;44.40
38936;DHT22;66589;47.458;9.644;2023-07-09T05:33:17;34.80;44.00
38936;DHT22;66589;47.458;9.644;2023-07-09T05:35:47;35.30;43.20
38936;DHT22;66589;47.458;9.644;2023-07-09T05:38:13;35.30;43.00
38936;DHT22;66589;47.458;9.644;2023-07-09T05:40:40;35.30;43.40
38936;DHT22;66589;47.458;9.644;2023-07-09T05:43:05;35.30;43.40
38936;DHT22;66589;47.458;9.644;2023-07-09T05:45:31;35.40;42.90
38936;DHT22;66589;47.458;9.644;2023-07-09T05:48:00;35.40;42.40
38936;DHT22;66589;47.458;9.644;2023-07-09T05:50:28;35.90;41.80
38936;DHT22;66589;47.458;9.644;2023-07-09T05:52:54;36.20;41.70
38936;DHT22;66589;47.458;9.644;2023-07-09T05:55:20;36.40;40.60
38936;DHT22;66589;47.458;9.644;2023-07-09T05:57:46;36.50;41.50
38936;DHT22;66589;47.458;9.644;2023-07-09T06:00:12;36.00;40.70
38936;DHT22;66589;47.458;9.644;2023-07-09T06:02:38;36.10;41.70
38936;DHT22;66589;47.458;9.644;2023-07-09T06:05:04;36.20;41.50
38936;DHT22;66589;47.458;9.644;2023-07-09T06:07:30;36.60;41.20
38936;DHT22;66589;47.458;9.644;2023-07-09T06:09:56;37.30;40.70
38936;DHT22;66589;47.458;9.644;2023-07-09T06:12:22;38.10;39.40
38936;DHT22;66589;47.458;9.644;2023-07-09T06:14:48;38.50;39.90
38936;DHT22;66589;47.458;9.644;2023-07-09T06:17:14;38.90;38.70
38936;DHT22;66589;47.458;9.644;2023-07-09T06:19:40;39.30;38.80
38936;DHT22;66589;47.458;9.644;2023-07-09T06:22:06;39.50;38.20
38936;DHT22;66589;47.458;9.644;2023-07-09T06:24:32;39.50;38.90
38936;DHT22;66589;47.458;9.644;2023-07-09T06:26:57;39.90;38.40
38936;DHT22;66589;47.458;9.644;2023-07-09T06:29:24;40.30;38.20
38936;DHT22;66589;47.458;9.644;2023-07-09T06:31:50;40.30;36.70
38936;DHT22;66589;47.458;9.644;2023-07-09T06:34:16;40.50;37.30
38936;DHT22;66589;47.458;9.644;2023-07-09T06:36:42;40.90;36.70
38936;DHT22;66589;47.458;9.644;2023-07-09T06:39:08;40.70;37.70
38936;DHT22;66589;47.458;9.644;2023-07-09T06:41:34;40.70;36.90
38936;DHT22;66589;47.458;9.644;2023-07-09T06:44:08;41.10;36.60
38936;DHT22;66589;47.458;9.644;2023-07-09T06:46:35;41.70;37.20
38936;DHT22;66589;47.458;9.644;2023-07-09T06:49:02;42.20;35.70
38936;DHT22;66589;47.458;9.644;2023-07-09T06:51:28;42.40;36.30
38936;DHT22;66589;47.458;9.644;2023-07-09T06:53:54;42.90;35.70
38936;DHT22;66589;47.458;9.644;2023-07-09T06:56:19;42.60;34.70
38936;DHT22;66589;47.458;9.644;2023-07-09T06:58:46;42.40;35.00
38936;DHT22;66589;47.458;9.644;2023-07-09T07:01:12;42.90;35.40
38936;DHT22;66589;47.458;9.644;2023-07-09T07:03:38;42.90;34.30
38936;DHT22;66589;47.458;9.644;2023-07-09T07:06:04;42.80;34.30
38936;DHT22;66589;47.458;9.644;2023-07-09T07:08:32;42.90;35.60
38936;DHT22;66589;47.458;9.644;2023-07-09T07:11:00;43.40;34.40
38936;DHT22;66589;47.458;9.644;2023-07-09T07:13:35;44.00;34.20
38936;DHT22;66589;47.458;9.644;2023-07-09T07:16:04;44.60;34.20
38936;DHT22;66589;47.458;9.644;2023-07-09T07:18:30;44.60;33.50
38936;DHT22;66589;47.458;9.644;2023-07-09T07:20:56;44.60;33.70
38936;DHT22;66589;47.458;9.644;2023-07-09T07:23:22;45.10;33.90
38936;DHT22;66589;47.458;9.644;2023-07-09T07:25:48;45.80;33.20
38936;DHT22;66589;47.458;9.644;2023-07-09T07:28:15;45.70;32.90
38936;DHT22;66589;47.458;9.644;2023-07-09T07:30:41;45.70;33.30
38936;DHT22;66589;47.458;9.644;2023-07-09T07:33:06;45.90;33.00
38936;DHT22;66589;47.458;9.644;2023-07-09T07:35:32;46.00;32.40
38936;DHT22;66589;47.458;9.644;2023-07-09T07:37:58;46.20;32.70
38936;DHT22;66589;47.458;9.644;2023-07-09T07:40:23;46.50;32.60
38936;DHT22;66589;47.458;9.644;2023-07-09T07:42:49;46.80;32.00
38936;DHT22;66589;47.458;9.644;2023-07-09T07:45:15;47.00;32.20
38936;DHT22;66589;47.458;9.644;2023-07-09T07:47:41;47.20;33.10
38936;DHT22;66589;47.458;9.644;2023-07-09T07:50:08;47.20;31.60
38936;DHT22;66589;47.458;9.644;2023-07-09T07:52:34;47.20;31.10
38936;DHT22;66589;47.458;9.644;2023-07-09T07:55:06;46.80;31.80
38936;DHT22;66589;47.458;9.644;2023-07-09T07:57:32;46.40;31.20
38936;DHT22;66589;47.458;9.644;2023-07-09T07:59:58;46.20;32.00
38936;DHT22;66589;47.458;9.644;2023-07-09T08:02:24;46.50;33.20
38936;DHT22;66589;47.458;9.644;2023-07-09T08:04:50;46.70;32.80
38936;DHT22;66589;47.458;9.644;2023-07-09T08:07:17;46.90;32.40
38936;DHT22;66589;47.458;9.644;2023-07-09T08:09:44;47.80;32.20
38936;DHT22;66589;47.458;9.644;2023-07-09T08:12:10;48.30;32.60
38936;DHT22;66589;47.458;9.644;2023-07-09T08:14:38;48.90;30.80
38936;DHT22;66589;47.458;9.644;2023-07-09T08:17:04;49.10;30.60
38936;DHT22;66589;47.458;9.644;2023-07-09T08:19:30;49.10;30.60
38936;DHT22;66589;47.458;9.644;2023-07-09T08:21:56;49.40;30.50
38936;DHT22;66589;47.458;9.644;2023-07-09T08:24:22;49.60;30.30
38936;DHT22;66589;47.458;9.644;2023-07-09T08:26:48;50.20;30.30
38936;DHT22;66589;47.458;9.644;2023-07-09T08:29:14;50.90;30.40
38936;DHT22;66589;47.458;9.644;2023-07-09T08:31:39;51.30;29.70
38936;DHT22;66589;47.458;9.644;2023-07-09T08:34:07;51.30;29.50
38936;DHT22;66589;47.458;9.644;2023-07-09T08:36:33;50.70;29.40
38936;DHT22;66589;47.458;9.644;2023-07-09T08:39:01;50.70;29.80
38936;DHT22;66589;47.458;9.644;2023-07-09T08:41:45;50.70;30.10
38936;DHT22;66589;47.458;9.644;2023-07-09T08:49:40;51.50;29.70
38936;DHT22;66589;47.458;9.644;2023-07-09T08:52:29;51.60;30.10
38936;DHT22;66589;47.458;9.644;2023-07-09T08:54:58;51.20;32.00
38936;DHT22;66589;47.458;9.644;2023-07-09T08:57:32;51.40;32.30
38936;DHT22;66589;47.458;9.644;2023-07-09T09:02:55;51.70;31.80
38936;DHT22;66589;47.458;9.644;2023-07-09T09:05:23;51.20;32.10
38936;DHT22;66589;47.458;9.644;2023-07-09T09:07:51;51.30;33.10
38936;DHT22;66589;47.458;9.644;2023-07-09T09:10:31;51.30;33.00
38936;DHT22;66589;47.458;9.644;2023-07-09T09:13:11;51.30;32.50
38936;DHT22;66589;47.458;9.644;2023-07-09T09:15:40;51.30;32.50
38936;DHT22;66589;47.458;9.644;2023-07-09T09:18:27;50.80;33.20
38936;DHT22;66589;47.458;9.644;2023-07-09T09:21:01;51.20;32.90
38936;DHT22;66589;47.458;9.644;2023-07-09T09:23:38;51.30;33.20
38936;DHT22;66589;47.458;9.644;2023-07-09T09:26:14;50.90;32.70
38936;DHT22;66589;47.458;9.644;2023-07-09T09:28:42;50.70;33.00
38936;DHT22;66589;47.458;9.644;2023-07-09T09:31:11;50.80;32.30
38936;DHT22;66589;47.458;9.644;2023-07-09T09:33:44;51.10;32.30
38936;DHT22;66589;47.458;9.644;2023-07-09T09:36:24;51.20;32.10
38936;DHT22;66589;47.458;9.644;2023-07-09T09:38:50;51.40;31.80
38936;DHT22;66589;47.458;9.644;2023-07-09T09:41:22;51.50;31.50
38936;DHT22;66589;47.458;9.644;2023-07-09T09:43:52;51.60;32.50
38936;DHT22;66589;47.458;9.644;2023-07-09T09:46:23;51.30;31.80
38936;DHT22;66589;47.458;9.644;2023-07-09T09:48:51;50.90;32.90
38936;DHT22;66589;47.458;9.644;2023-07-09T09:51:18;50.80;33.30
38936;DHT22;66589;47.458;9.644;2023-07-09T09:53:48;50.60;33.20
38936;DHT22;66589;47.458;9.644;2023-07-09T09:56:29;51.00;32.30
38936;DHT22;66589;47.458;9.644;2023-07-09T09:58:56;51.40;31.90
38936;DHT22;66589;47.458;9.644;2023-07-09T10:01:34;50.90;33.20
38936;DHT22;66589;47.458;9.644;2023-07-09T10:04:01;49.70;33.30
38936;DHT22;66589;47.458;9.644;2023-07-09T10:16:45;44.10;38.40
38936;DHT22;66589;47.458;9.644;2023-07-09T10:19:21;43.00;39.90
38936;DHT22;66589;47.458;9.644;2023-07-09T10:32:24;39.20;44.70
38936;DHT22;66589;47.458;9.644;2023-07-09T10:35:10;38.40;45.30
38936;DHT22;66589;47.458;9.644;2023-07-09T10:37:51;37.80;46.80
38936;DHT22;66589;47.458;9.644;2023-07-09T10:40:28;37.50;46.50
38936;DHT22;66589;47.458;9.644;2023-07-09T10:42:58;37.30;46.90
38936;DHT22;66589;47.458;9.644;2023-07-09T10:45:40;37.00;47.30
38936;DHT22;66589;47.458;9.644;2023-07-09T10:48:14;37.00;46.90
38936;DHT22;66589;47.458;9.644;2023-07-09T10:50:51;36.90;44.90
38936;DHT22;66589;47.458;9.644;2023-07-09T10:53:29;36.70;46.70
38936;DHT22;66589;47.458;9.644;2023-07-09T10:56:12;36.60;44.30
38936;DHT22;66589;47.458;9.644;2023-07-09T10:58:47;36.50;44.80
38936;DHT22;66589;47.458;9.644;2023-07-09T11:01:14;36.60;44.90
38936;DHT22;66589;47.458;9.644;2023-07-09T11:03:56;36.40;43.50
38936;DHT22;66589;47.458;9.644;2023-07-09T11:06:33;36.20;43.50
38936;DHT22;66589;47.458;9.644;2023-07-09T11:09:02;36.20;45.40
38936;DHT22;66589;47.458;9.644;2023-07-09T11:14:08;36.30;44.10
38936;DHT22;66589;47.458;9.644;2023-07-09T11:16:39;36.40;45.30
38936;DHT22;66589;47.458;9.644;2023-07-09T11:19:06;36.30;46.00
38936;DHT22;66589;47.458;9.644;2023-07-09T11:21:58;36.20;43.00
38936;DHT22;66589;47.458;9.644;2023-07-09T11:24:45;36.10;45.60
38936;DHT22;66589;47.458;9.644;2023-07-09T11:27:24;36.00;46.80
38936;DHT22;66589;47.458;9.644;2023-07-09T11:30:00;36.10;45.40
38936;DHT22;66589;47.458;9.644;2023-07-09T11:32:27;35.90;45.10
38936;DHT22;66589;47.458;9.644;2023-07-09T11:34:53;35.90;45.00
38936;DHT22;66589;47.458;9.644;2023-07-09T11:37:25;36.00;47.60
38936;DHT22;66589;47.458;9.644;2023-07-09T11:39:51;35.90;46.70
38936;DHT22;66589;47.458;9.644;2023-07-09T11:42:32;35.90;45.40
38936;DHT22;66589;47.458;9.644;2023-07-09T11:47:36;35.70;40.80
38936;DHT22;66589;47.458;9.644;2023-07-09T11:50:05;35.70;45.00
38936;DHT22;66589;47.458;9.644;2023-07-09T11:52:50;35.60;45.10
38936;DHT22;66589;47.458;9.644;2023-07-09T11:55:36;35.60;42.80
38936;DHT22;66589;47.458;9.644;2023-07-09T11:58:04;35.60;41.40
38936;DHT22;66589;47.458;9.644;2023-07-09T12:00:41;35.60;45.10
38936;DHT22;66589;47.458;9.644;2023-07-09T12:03:14;35.60;43.10
38936;DHT22;66589;47.458;9.644;2023-07-09T12:05:56;35.60;41.30
38936;DHT22;66589;47.458;9.644;2023-07-09T12:08:36;35.70;44.20
38936;DHT22;66589;47.458;9.644;2023-07-09T12:11:02;35.60;40.90
38936;DHT22;66589;47.458;9.644;2023-07-09T12:13:28;35.80;41.30
38936;DHT22;66589;47.458;9.644;2023-07-09T12:15:54;35.70;40.60
38936;DHT22;66589;47.458;9.644;2023-07-09T12:18:19;35.80;40.10
38936;DHT22;66589;47.458;9.644;2023-07-09T12:20:49;35.70;41.50
38936;DHT22;66589;47.458;9.644;2023-07-09T12:23:26;35.80;40.50
38936;DHT22;66589;47.458;9.644;2023-07-09T12:25:53;35.90;39.70
38936;DHT22;66589;47.458;9.644;2023-07-09T12:28:20;36.10;40.20
38936;DHT22;66589;47.458;9.644;2023-07-09T12:30:48;36.20;39.00
38936;DHT22;66589;47.458;9.644;2023-07-09T12:33:25;36.20;39.30
38936;DHT22;66589;47.458;9.644;2023-07-09T12:36:01;36.00;38.10
38936;DHT22;66589;47.458;9.644;2023-07-09T12:38:41;36.00;36.70
38936;DHT22;66589;47.458;9.644;2023-07-09T12:41:24;36.10;38.50
38936;DHT22;66589;47.458;9.644;2023-07-09T12:43:52;36.10;36.40
38936;DHT22;66589;47.458;9.644;2023-07-09T12:46:18;35.80;38.10
38936;DHT22;66589;47.458;9.644;2023-07-09T12:48:45;35.80;37.50
38936;DHT22;66589;47.458;9.644;2023-07-09T12:51:28;35.90;37.60
38936;DHT22;66589;47.458;9.644;2023-07-09T12:54:23;36.00;37.30
38936;DHT22;66589;47.458;9.644;2023-07-09T12:56:53;35.90;39.80
38936;DHT22;66589;47.458;9.644;2023-07-09T12:59:28;35.90;40.20
38936;DHT22;66589;47.458;9.644;2023-07-09T13:02:01;36.00;39.80
38936;DHT22;66589;47.458;9.644;2023-07-09T13:04:35;36.00;38.00
38936;DHT22;66589;47.458;9.644;2023-07-09T13:07:02;35.90;35.60
38936;DHT22;66589;47.458;9.644;2023-07-09T13:09:28;35.70;37.70
38936;DHT22;66589;47.458;9.644;2023-07-09T13:11:57;35.80;40.60
38936;DHT22;66589;47.458;9.644;2023-07-09T13:14:29;36.00;39.70
38936;DHT22;66589;47.458;9.644;2023-07-09T13:17:06;36.00;40.00
38936;DHT22;66589;47.458;9.644;2023-07-09T13:19:33;36.00;39.40
38936;DHT22;66589;47.458;9.644;2023-07-09T13:21:59;36.10;38.70
38936;DHT22;66589;47.458;9.644;2023-07-09T13:24:28;36.10;37.00
38936;DHT22;66589;47.458;9.644;2023-07-09T13:26:55;36.00;37.10
38936;DHT22;66589;47.458;9.644;2023-07-09T13:29:23;36.00;38.20
38936;DHT22;66589;47.458;9.644;2023-07-09T13:31:49;36.10;38.50
38936;DHT22;66589;47.458;9.644;2023-07-09T13:34:26;35.90;37.90
38936;DHT22;66589;47.458;9.644;2023-07-09T13:36:53;35.80;35.00
38936;DHT22;66589;47.458;9.644;2023-07-09T13:39:22;35.80;37.50
38936;DHT22;66589;47.458;9.644;2023-07-09T13:41:50;35.80;36.90
38936;DHT22;66589;47.458;9.644;2023-07-09T13:44:27;35.70;35.20
38936;DHT22;66589;47.458;9.644;2023-07-09T13:46:54;35.70;36.00
38936;DHT22;66589;47.458;9.644;2023-07-09T13:49:23;35.70;37.40
38936;DHT22;66589;47.458;9.644;2023-07-09T13:51:50;35.60;36.90
38936;DHT22;66589;47.458;9.644;2023-07-09T13:54:29;35.70;36.30
38936;DHT22;66589;47.458;9.644;2023-07-09T13:57:01;35.60;35.20
38936;DHT22;66589;47.458;9.644;2023-07-09T13:59:28;35.50;38.50
38936;DHT22;66589;47.458;9.644;2023-07-09T14:01:56;35.50;39.10
38936;DHT22;66589;47.458;9.644;2023-07-09T14:04:23;35.70;39.40
38936;DHT22;66589;47.458;9.644;2023-07-09T14:06:49;35.70;38.50
38936;DHT22;66589;47.458;9.644;2023-07-09T14:09:15;35.50;38.90
38936;DHT22;66589;47.458;9.644;2023-07-09T14:11:44;35.40;36.10
38936;DHT22;66589;47.458;9.644;2023-07-09T14:14:25;35.30;38.30
38936;DHT22;66589;47.458;9.644;2023-07-09T14:16:53;35.30;36.90
38936;DHT22;66589;47.458;9.644;2023-07-09T14:19:21;35.30;34.80
38936;DHT22;66589;47.458;9.644;2023-07-09T14:21:47;35.10;35.50
38936;DHT22;66589;47.458;9.644;2023-07-09T14:24:28;35.00;36.80
38936;DHT22;66589;47.458;9.644;2023-07-09T14:26:56;35.00;35.40
38936;DHT22;66589;47.458;9.644;2023-07-09T14:29:23;35.00;35.20
38936;DHT22;66589;47.458;9.644;2023-07-09T14:31:49;35.00;37.50
38936;DHT22;66589;47.458;9.644;2023-07-09T14:34:27;35.00;35.80
38936;DHT22;66589;47.458;9.644;2023-07-09T14:36:55;35.00;38.00
38936;DHT22;66589;47.458;9.644;2023-07-09T14:39:22;35.00;38.10
38936;DHT22;66589;47.458;9.644;2023-07-09T14:41:48;35.00;37.90
38936;DHT22;66589;47.458;9.644;2023-07-09T14:44:30;34.90;38.60
38936;DHT22;66589;47.458;9.644;2023-07-09T14:46:58;34.90;40.40
38936;DHT22;66589;47.458;9.644;2023-07-09T14:49:25;34.90;40.10
38936;DHT22;66589;47.458;9.644;2023-07-09T14:51:52;34.90;40.00
38936;DHT22;66589;47.458;9.644;2023-07-09T14:54:28;35.00;39.10
38936;DHT22;66589;47.458;9.644;2023-07-09T14:56:55;35.00;39.50
38936;DHT22;66589;47.458;9.644;2023-07-09T14:59:22;34.80;40.00
38936;DHT22;66589;47.458;9.644;2023-07-09T15:01:48;34.90;40.80
38936;DHT22;66589;47.458;9.644;2023-07-09T15:06:51;34.70;40.00
38936;DHT22;66589;47.458;9.644;2023-07-09T15:09:20;34.60;39.30
38936;DHT22;66589;47.458;9.644;2023-07-09T15:11:48;34.70;40.20
38936;DHT22;66589;47.458;9.644;2023-07-09T15:14:15;34.70;39.60
38936;DHT22;66589;47.458;9.644;2023-07-09T15:16:41;34.70;39.20
38936;DHT22;66589;47.458;9.644;2023-07-09T15:19:13;34.60;36.70
38936;DHT22;66589;47.458;9.644;2023-07-09T15:21:39;34.50;36.70
38936;DHT22;66589;47.458;9.644;2023-07-09T15:24:25;34.50;37.70
38936;DHT22;66589;47.458;9.644;2023-07-09T15:26:53;34.40;36.30
38936;DHT22;66589;47.458;9.644;2023-07-09T15:29:20;34.40;36.10
38936;DHT22;66589;47.458;9.644;2023-07-09T15:31:46;34.30;36.30
38936;DHT22;66589;47.458;9.644;2023-07-09T15:34:12;34.40;36.90
38936;DHT22;66589;47.458;9.644;2023-07-09T15:36:42;34.40;36.20
38936;DHT22;66589;47.458;9.644;2023-07-09T15:39:10;34.50;36.60
38936;DHT22;66589;47.458;9.644;2023-07-09T15:41:36;34.50;36.10
38936;DHT22;66589;47.458;9.644;2023-07-09T15:44:02;34.60;36.90
38936;DHT22;66589;47.458;9.644;2023-07-09T15:46:27;34.60;36.50
38936;DHT22;66589;47.458;9.644;2023-07-09T15:48:54;34.70;37.70
38936;DHT22;66589;47.458;9.644;2023-07-09T15:51:20;34.70;35.00
38936;DHT22;66589;47.458;9.644;2023-07-09T15:53:46;34.70;35.50
38936;DHT22;66589;47.458;9.644;2023-07-09T15:56:13;34.70;35.00
38936;DHT22;66589;47.458;9.644;2023-07-09T15:58:43;34.70;33.80
38936;DHT22;66589;47.458;9.644;2023-07-09T16:01:16;34.70;35.00
38936;DHT22;66589;47.458;9.644;2023-07-09T16:03:46;34.70;33.20
38936;DHT22;66589;47.458;9.644;2023-07-09T16:06:25;34.70;33.90
38936;DHT22;66589;47.458;9.644;2023-07-09T16:08:50;34.70;35.00
38936;DHT22;66589;47.458;9.644;2023-07-09T16:11:22;34.70;34.80
38936;DHT22;66589;47.458;9.644;2023-07-09T16:13:49;34.80;34.50
38936;DHT22;66589;47.458;9.644;2023-07-09T16:16:20;34.80;32.60
38936;DHT22;66589;47.458;9.644;2023-07-09T16:18:46;34.80;34.30
38936;DHT22;66589;47.458;9.644;2023-07-09T16:21:25;34.70;32.30
38936;DHT22;66589;47.458;9.644;2023-07-09T16:23:52;34.70;33.20
38936;DHT22;66589;47.458;9.644;2023-07-09T16:26:18;34.70;34.40
38936;DHT22;66589;47.458;9.644;2023-07-09T16:28:44;34.80;33.80
38936;DHT22;66589;47.458;9.644;2023-07-09T16:31:10;34.70;33.10
38936;DHT22;66589;47.458;9.644;2023-07-09T16:33:35;34.70;34.00
38936;DHT22;66589;47.458;9.644;2023-07-09T16:36:01;34.60;33.60
38936;DHT22;66589;47.458;9.644;2023-07-09T16:38:30;34.60;34.00
38936;DHT22;66589;47.458;9.644;2023-07-09T16:40:57;34.50;35.20
38936;DHT22;66589;47.458;9.644;2023-07-09T16:43:23;34.40;36.00
38936;DHT22;66589;47.458;9.644;2023-07-09T16:45:49;34.40;34.00
38936;DHT22;66589;47.458;9.644;2023-07-09T16:48:20;34.30;34.60
38936;DHT22;66589;47.458;9.644;2023-07-09T16:50:54;34.20;33.60
38936;DHT22;66589;47.458;9.644;2023-07-09T16:53:20;34.20;33.40
38936;DHT22;66589;47.458;9.644;2023-07-09T16:55:50;34.10;34.00
38936;DHT22;66589;47.458;9.644;2023-07-09T16:58:31;34.10;34.30
38936;DHT22;66589;47.458;9.644;2023-07-09T17:00:57;34.00;34.60
38936;DHT22;66589;47.458;9.644;2023-07-09T17:03:23;34.00;35.40
38936;DHT22;66589;47.458;9.644;2023-07-09T17:05:49;34.00;34.50
38936;DHT22;66589;47.458;9.644;2023-07-09T17:08:15;33.90;34.30
38936;DHT22;66589;47.458;9.644;2023-07-09T17:10:42;33.90;34.40
38936;DHT22;66589;47.458;9.644;2023-07-09T17:13:23;33.80;34.10
38936;DHT22;66589;47.458;9.644;2023-07-09T17:15:49;33.70;35.00
38936;DHT22;66589;47.458;9.644;2023-07-09T17:18:26;33.60;35.10
38936;DHT22;66589;47.458;9.644;2023-07-09T17:20:55;33.50;35.00
38936;DHT22;66589;47.458;9.644;2023-07-09T17:23:22;33.40;35.10
38936;DHT22;66589;47.458;9.644;2023-07-09T17:25:52;33.30;35.40
38936;DHT22;66589;47.458;9.644;2023-07-09T17:28:23;33.30;35.20
38936;DHT22;66589;47.458;9.644;2023-07-09T17:30:50;33.20;35.30
38936;DHT22;66589;47.458;9.644;2023-07-09T17:33:17;33.20;35.10
38936;DHT22;66589;47.458;9.644;2023-07-09T17:35:44;33.20;35.60
38936;DHT22;66589;47.458;9.644;2023-07-09T17:38:34;33.10;37.10
38936;DHT22;66589;47.458;9.644;2023-07-09T17:41:00;33.00;37.20
38936;DHT22;66589;47.458;9.644;2023-07-09T17:43:26;33.00;37.20
38936;DHT22;66589;47.458;9.644;2023-07-09T17:45:53;33.00;37.20
38936;DHT22;66589;47.458;9.644;2023-07-09T17:48:32;32.90;38.30
38936;DHT22;66589;47.458;9.644;2023-07-09T17:50:58;32.80;37.90
38936;DHT22;66589;47.458;9.644;2023-07-09T17:53:33;32.70;37.50
38936;DHT22;66589;47.458;9.644;2023-07-09T17:55:59;32.50;37.40
38936;DHT22;66589;47.458;9.644;2023-07-09T17:58:31;32.50;37.40
38936;DHT22;66589;47.458;9.644;2023-07-09T18:01:01;32.40;37.50
38936;DHT22;66589;47.458;9.644;2023-07-09T18:03:27;32.30;38.80
38936;DHT22;66589;47.458;9.644;2023-07-09T18:05:53;32.20;39.70
38936;DHT22;66589;47.458;9.644;2023-07-09T18:08:18;32.10;40.40
38936;DHT22;66589;47.458;9.644;2023-07-09T18:10:45;32.00;41.50
38936;DHT22;66589;47.458;9.644;2023-07-09T18:13:20;31.80;41.40
38936;DHT22;66589;47.458;9.644;2023-07-09T18:15:49;31.70;41.50
38936;DHT22;66589;47.458;9.644;2023-07-09T18:18:16;31.60;42.00
38936;DHT22;66589;47.458;9.644;2023-07-09T18:20:42;31.50;42.60
38936;DHT22;66589;47.458;9.644;2023-07-09T18:23:08;31.30;42.20
38936;DHT22;66589;47.458;9.644;2023-07-09T18:25:37;31.20;42.30
38936;DHT22;66589;47.458;9.644;2023-07-09T18:28:05;31.10;41.50
38936;DHT22;66589;47.458;9.644;2023-07-09T18:30:33;31.10;41.10
38936;DHT22;66589;47.458;9.644;2023-07-09T18:33:02;31.10;41.60
38936;DHT22;66589;47.458;9.644;2023-07-09T18:35:32;31.00;41.50
38936;DHT22;66589;47.458;9.644;2023-07-09T18:38:00;30.90;41.40
38936;DHT22;66589;47.458;9.644;2023-07-09T18:40:31;30.90;41.40
38936;DHT22;66589;47.458;9.644;2023-07-09T18:42:58;30.80;42.60
38936;DHT22;66589;47.458;9.644;2023-07-09T18:45:27;30.60;43.40
38936;DHT22;66589;47.458;9.644;2023-07-09T18:47:53;30.60;43.60
38936;DHT22;66589;47.458;9.644;2023-07-09T18:50:26;30.40;44.00
38936;DHT22;66589;47.458;9.644;2023-07-09T18:52:53;30.30;43.90
38936;DHT22;66589;47.458;9.644;2023-07-09T18:55:25;30.30;44.50
38936;DHT22;66589;47.458;9.644;2023-07-09T18:57:51;30.10;43.60
38936;DHT22;66589;47.458;9.644;2023-07-09T19:00:18;30.00;44.20
38936;DHT22;66589;47.458;9.644;2023-07-09T19:02:47;29.80;44.90
38936;DHT22;66589;47.458;9.644;2023-07-09T19:05:23;29.70;43.80
38936;DHT22;66589;47.458;9.644;2023-07-09T19:07:51;29.60;43.60
38936;DHT22;66589;47.458;9.644;2023-07-09T19:10:28;29.50;43.80
38936;DHT22;66589;47.458;9.644;2023-07-09T19:13:00;29.50;42.70
38936;DHT22;66589;47.458;9.644;2023-07-09T19:15:34;29.40;42.70
38936;DHT22;66589;47.458;9.644;2023-07-09T19:18:00;29.30;42.90
38936;DHT22;66589;47.458;9.644;2023-07-09T19:20:25;29.10;44.30
38936;DHT22;66589;47.458;9.644;2023-07-09T19:22:51;29.00;45.70
38936;DHT22;66589;47.458;9.644;2023-07-09T19:25:23;28.90;47.00
38936;DHT22;66589;47.458;9.644;2023-07-09T19:27:50;28.80;47.60
38936;DHT22;66589;47.458;9.644;2023-07-09T19:30:18;28.60;48.60
38936;DHT22;66589;47.458;9.644;2023-07-09T19:32:50;28.50;47.80
38936;DHT22;66589;47.458;9.644;2023-07-09T19:35:21;28.40;47.80